sensor_id;sensor_type;location;lat;lon;timestamp;temperature;humidity
37300;DHT22;23184;51.902;12.836;2022-11-15T00:00:03;5.80;99.90
37300;DHT22;23184;51.902;12.836;2022-11-15T00:02:29;5.70;99.90
37300;DHT22;23184;51.902;12.836;2022-11-15T00:04:54;5.70;99.90
37300;DHT22;23184;51.902;12.836;2022-11-15T00:07:20;5.60;99.90
37300;DHT22;23184;51.902;12.836;2022-11-15T00:09:46;5.70;99.90
37300;DHT22;23184;51.902;12.836;2022-11-15T00:12:11;5.70;99.90
37300;DHT22;23184;51.902;12.836;2022-11-15T00:14:37;5.80;99.90
37300;DHT22;23184;51.902;12.836;2022-11-15T00:17:02;5.80;99.90
37300;DHT22;23184;51.902;12.836;2022-11-15T00:19:28;5.80;99.90
37300;DHT22;23184;51.902;12.836;2022-11-15T00:21:53;5.90;99.90
37300;DHT22;23184;51.902;12.836;2022-11-15T00:24:19;5.90;99.90
37300;DHT22;23184;51.902;12.836;2022-11-15T00:26:44;5.90;99.90
37300;DHT22;23184;51.902;12.836;2022-11-15T00:29:10;5.90;99.90
37300;DHT22;23184;51.902;12.836;2022-11-15T00:31:35;5.90;99.90
37300;DHT22;23184;51.902;12.836;2022-11-15T00:34:01;6.00;99.90
37300;DHT22;23184;51.902;12.836;2022-11-15T00:36:26;6.00;99.90
37300;DHT22;23184;51.902;12.836;2022-11-15T00:38:52;5.90;99.90
37300;DHT22;23184;51.902;12.836;2022-11-15T00:41:17;6.00;99.90
37300;DHT22;23184;51.902;12.836;2022-11-15T00:43:43;5.90;99.90
37300;DHT22;23184;51.902;12.836;2022-11-15T00:46:09;6.00;99.90
37300;DHT22;23184;51.902;12.836;2022-11-15T00:48:36;6.00;99.90
37300;DHT22;23184;51.902;12.836;2022-11-15T00:51:02;6.00;99.90
37300;DHT22;23184;51.902;12.836;2022-11-15T00:53:27;5.90;99.90
37300;DHT22;23184;51.902;12.836;2022-11-15T00:55:53;5.90;99.90
37300;DHT22;23184;51.902;12.836;2022-11-15T00:58:19;5.80;99.90
37300;DHT22;23184;51.902;12.836;2022-11-15T01:00:44;5.80;99.90
37300;DHT22;23184;51.902;12.836;2022-11-15T01:03:10;5.80;99.90
37300;DHT22;23184;51.902;12.836;2022-11-15T01:05:37;5.80;99.90
37300;DHT22;23184;51.902;12.836;2022-11-15T01:08:03;5.80;99.90
37300;DHT22;23184;51.902;12.836;2022-11-15T01:10:29;5.80;99.90
37300;DHT22;23184;51.902;12.836;2022-11-15T01:12:54;5.80;99.90
37300;DHT22;23184;51.902;12.836;2022-11-15T01:15:20;5.80;99.90
37300;DHT22;23184;51.902;12.836;2022-11-15T01:17:45;5.80;99.90
37300;DHT22;23184;51.902;12.836;2022-11-15T01:20:11;5.80;99.90
37300;DHT22;23184;51.902;12.836;2022-11-15T01:22:37;5.80;99.90
37300;DHT22;23184;51.902;12.836;2022-11-15T01:25:03;5.80;99.90
37300;DHT22;23184;51.902;12.836;2022-11-15T01:27:28;5.70;99.90
37300;DHT22;23184;51.902;12.836;2022-11-15T01:29:54;5.80;99.90
37300;DHT22;23184;51.902;12.836;2022-11-15T01:32:19;5.80;99.90
37300;DHT22;23184;51.902;12.836;2022-11-15T01:34:45;5.80;99.90
37300;DHT22;23184;51.902;12.836;2022-11-15T01:37:10;5.70;99.90
37300;DHT22;23184;51.902;12.836;2022-11-15T01:39:36;5.80;99.90
37300;DHT22;23184;51.902;12.836;2022-11-15T01:42:02;5.80;99.90
37300;DHT22;23184;51.902;12.836;2022-11-15T01:47:01;5.90;99.90
37300;DHT22;23184;51.902;12.836;2022-11-15T01:49:29;6.00;99.90
37300;DHT22;23184;51.902;12.836;2022-11-15T01:51:56;6.00;99.90
37300;DHT22;23184;51.902;12.836;2022-11-15T01:54:23;6.00;99.90
37300;DHT22;23184;51.902;12.836;2022-11-15T01:57:04;6.00;99.90
37300;DHT22;23184;51.902;12.836;2022-11-15T01:59:31;6.00;99.90
37300;DHT22;23184;51.902;12.836;2022-11-15T02:01:57;6.00;99.90
37300;DHT22;23184;51.902;12.836;2022-11-15T02:04:28;6.00;99.90
37300;DHT22;23184;51.902;12.836;2022-11-15T02:06:54;6.00;99.90
37300;DHT22;23184;51.902;12.836;2022-11-15T02:09:20;6.00;99.90
37300;DHT22;23184;51.902;12.836;2022-11-15T02:11:46;6.00;99.90
37300;DHT22;23184;51.902;12.836;2022-11-15T02:14:14;5.90;99.90
37300;DHT22;23184;51.902;12.836;2022-11-15T02:19:17;5.90;99.90
37300;DHT22;23184;51.902;12.836;2022-11-15T02:21:52;5.90;99.90
37300;DHT22;23184;51.902;12.836;2022-11-15T02:24:41;5.80;99.90
37300;DHT22;23184;51.902;12.836;2022-11-15T02:30:18;5.80;99.90
37300;DHT22;23184;51.902;12.836;2022-11-15T02:32:48;5.80;99.90
37300;DHT22;23184;51.902;12.836;2022-11-15T02:36:25;5.80;99.90
37300;DHT22;23184;51.902;12.836;2022-11-15T02:38:23;5.80;99.90
37300;DHT22;23184;51.902;12.836;2022-11-15T02:49:33;5.60;99.90
37300;DHT22;23184;51.902;12.836;2022-11-15T02:52:00;5.60;99.90
37300;DHT22;23184;51.902;12.836;2022-11-15T02:54:30;5.50;99.90
37300;DHT22;23184;51.902;12.836;2022-11-15T02:57:01;5.50;99.90
37300;DHT22;23184;51.902;12.836;2022-11-15T02:59:41;5.40;99.90
37300;DHT22;23184;51.902;12.836;2022-11-15T03:04:56;5.30;99.90
37300;DHT22;23184;51.902;12.836;2022-11-15T03:07:35;5.30;99.90
37300;DHT22;23184;51.902;12.836;2022-11-15T03:10:12;5.30;99.90
37300;DHT22;23184;51.902;12.836;2022-11-15T03:13:12;5.30;99.90
37300;DHT22;23184;51.902;12.836;2022-11-15T03:15:47;5.20;99.90
37300;DHT22;23184;51.902;12.836;2022-11-15T03:20:42;5.30;99.90
37300;DHT22;23184;51.902;12.836;2022-11-15T03:23:10;5.20;99.90
37300;DHT22;23184;51.902;12.836;2022-11-15T03:25:41;5.20;99.90
37300;DHT22;23184;51.902;12.836;2022-11-15T03:28:11;5.20;99.90
37300;DHT22;23184;51.902;12.836;2022-11-15T03:30:39;5.20;99.90
37300;DHT22;23184;51.902;12.836;2022-11-15T03:33:05;5.20;99.90
37300;DHT22;23184;51.902;12.836;2022-11-15T03:35:36;5.10;99.90
37300;DHT22;23184;51.902;12.836;2022-11-15T03:38:19;5.10;99.90
37300;DHT22;23184;51.902;12.836;2022-11-15T03:40:51;5.10;99.90
37300;DHT22;23184;51.902;12.836;2022-11-15T03:43:37;5.00;99.90
37300;DHT22;23184;51.902;12.836;2022-11-15T03:46:14;5.00;99.90
37300;DHT22;23184;51.902;12.836;2022-11-15T03:49:25;5.00;99.90
37300;DHT22;23184;51.902;12.836;2022-11-15T03:51:31;5.00;99.90
37300;DHT22;23184;51.902;12.836;2022-11-15T03:53:57;5.00;99.90
37300;DHT22;23184;51.902;12.836;2022-11-15T03:56:22;4.90;99.90
37300;DHT22;23184;51.902;12.836;2022-11-15T03:58:48;4.90;99.90
37300;DHT22;23184;51.902;12.836;2022-11-15T04:01:13;5.00;99.90
37300;DHT22;23184;51.902;12.836;2022-11-15T04:03:39;5.00;99.90
37300;DHT22;23184;51.902;12.836;2022-11-15T04:06:05;4.90;99.90
37300;DHT22;23184;51.902;12.836;2022-11-15T04:08:30;5.00;99.90
37300;DHT22;23184;51.902;12.836;2022-11-15T04:10:56;4.90;99.90
37300;DHT22;23184;51.902;12.836;2022-11-15T04:13:21;5.00;99.90
37300;DHT22;23184;51.902;12.836;2022-11-15T04:15:47;5.10;99.90
37300;DHT22;23184;51.902;12.836;2022-11-15T04:18:12;5.10;99.90
37300;DHT22;23184;51.902;12.836;2022-11-15T04:20:38;5.20;99.90
37300;DHT22;23184;51.902;12.836;2022-11-15T04:23:22;5.30;99.90
37300;DHT22;23184;51.902;12.836;2022-11-15T04:26:11;5.30;99.90
37300;DHT22;23184;51.902;12.836;2022-11-15T04:28:37;5.40;99.90
37300;DHT22;23184;51.902;12.836;2022-11-15T04:31:26;5.40;99.90
37300;DHT22;23184;51.902;12.836;2022-11-15T04:33:52;5.50;99.90
37300;DHT22;23184;51.902;12.836;2022-11-15T04:36:18;5.50;99.90
37300;DHT22;23184;51.902;12.836;2022-11-15T04:39:03;5.50;99.90
37300;DHT22;23184;51.902;12.836;2022-11-15T04:41:28;5.60;99.90
37300;DHT22;23184;51.902;12.836;2022-11-15T04:43:54;5.60;99.90
37300;DHT22;23184;51.902;12.836;2022-11-15T04:46:21;5.70;99.90
37300;DHT22;23184;51.902;12.836;2022-11-15T04:48:46;5.70;99.90
37300;DHT22;23184;51.902;12.836;2022-11-15T04:51:12;5.80;99.90
37300;DHT22;23184;51.902;12.836;2022-11-15T04:53:37;5.80;99.90
37300;DHT22;23184;51.902;12.836;2022-11-15T04:56:03;5.90;99.90
37300;DHT22;23184;51.902;12.836;2022-11-15T04:58:28;5.90;99.90
37300;DHT22;23184;51.902;12.836;2022-11-15T05:00:54;5.90;99.90
37300;DHT22;23184;51.902;12.836;2022-11-15T05:03:20;5.90;99.90
37300;DHT22;23184;51.902;12.836;2022-11-15T05:06:04;5.80;99.90
37300;DHT22;23184;51.902;12.836;2022-11-15T05:08:30;5.80;99.90
37300;DHT22;23184;51.902;12.836;2022-11-15T05:10:56;5.80;99.90
37300;DHT22;23184;51.902;12.836;2022-11-15T05:13:21;5.70;99.90
37300;DHT22;23184;51.902;12.836;2022-11-15T05:15:47;5.70;99.90
37300;DHT22;23184;51.902;12.836;2022-11-15T05:18:13;5.70;99.90
37300;DHT22;23184;51.902;12.836;2022-11-15T05:20:38;5.60;99.90
37300;DHT22;23184;51.902;12.836;2022-11-15T05:23:04;5.60;99.90
37300;DHT22;23184;51.902;12.836;2022-11-15T05:25:30;5.60;99.90
37300;DHT22;23184;51.902;12.836;2022-11-15T05:27:56;5.60;99.90
37300;DHT22;23184;51.902;12.836;2022-11-15T05:30:21;5.60;99.90
37300;DHT22;23184;51.902;12.836;2022-11-15T05:32:47;5.60;99.90
37300;DHT22;23184;51.902;12.836;2022-11-15T05:35:18;5.50;99.90
37300;DHT22;23184;51.902;12.836;2022-11-15T05:37:45;5.50;99.90
37300;DHT22;23184;51.902;12.836;2022-11-15T05:40:10;5.50;99.90
37300;DHT22;23184;51.902;12.836;2022-11-15T05:42:36;5.60;99.90
37300;DHT22;23184;51.902;12.836;2022-11-15T05:45:05;5.60;99.90
37300;DHT22;23184;51.902;12.836;2022-11-15T05:47:32;5.60;99.90
37300;DHT22;23184;51.902;12.836;2022-11-15T05:50:00;5.70;99.90
37300;DHT22;23184;51.902;12.836;2022-11-15T05:52:29;5.70;99.90
37300;DHT22;23184;51.902;12.836;2022-11-15T05:54:57;5.70;99.90
37300;DHT22;23184;51.902;12.836;2022-11-15T05:57:24;5.70;99.90
37300;DHT22;23184;51.902;12.836;2022-11-15T05:59:49;5.80;99.90
37300;DHT22;23184;51.902;12.836;2022-11-15T06:02:15;5.70;99.90
37300;DHT22;23184;51.902;12.836;2022-11-15T06:04:41;5.70;99.90
37300;DHT22;23184;51.902;12.836;2022-11-15T06:07:06;5.70;99.90
37300;DHT22;23184;51.902;12.836;2022-11-15T06:09:32;5.70;99.90
37300;DHT22;23184;51.902;12.836;2022-11-15T06:11:57;5.70;99.90
37300;DHT22;23184;51.902;12.836;2022-11-15T06:14:23;5.70;99.90
37300;DHT22;23184;51.902;12.836;2022-11-15T06:16:48;5.70;99.90
37300;DHT22;23184;51.902;12.836;2022-11-15T06:19:14;5.60;99.90
37300;DHT22;23184;51.902;12.836;2022-11-15T06:21:39;5.60;99.90
37300;DHT22;23184;51.902;12.836;2022-11-15T06:24:05;5.60;99.90
37300;DHT22;23184;51.902;12.836;2022-11-15T06:26:31;5.60;99.90
37300;DHT22;23184;51.902;12.836;2022-11-15T06:28:57;5.60;99.90
37300;DHT22;23184;51.902;12.836;2022-11-15T06:31:22;5.60;99.90
37300;DHT22;23184;51.902;12.836;2022-11-15T06:33:48;5.60;99.90
37300;DHT22;23184;51.902;12.836;2022-11-15T06:36:15;5.60;99.90
37300;DHT22;23184;51.902;12.836;2022-11-15T06:38:45;5.70;99.90
37300;DHT22;23184;51.902;12.836;2022-11-15T06:41:12;5.70;99.90
37300;DHT22;23184;51.902;12.836;2022-11-15T06:43:39;5.70;99.90
37300;DHT22;23184;51.902;12.836;2022-11-15T06:46:06;5.80;99.90
37300;DHT22;23184;51.902;12.836;2022-11-15T06:48:32;5.80;99.90
37300;DHT22;23184;51.902;12.836;2022-11-15T06:50:59;5.80;99.90
37300;DHT22;23184;51.902;12.836;2022-11-15T06:53:26;5.90;99.90
37300;DHT22;23184;51.902;12.836;2022-11-15T06:55:52;5.90;99.90
37300;DHT22;23184;51.902;12.836;2022-11-15T06:58:18;5.90;99.90
37300;DHT22;23184;51.902;12.836;2022-11-15T07:00:43;6.00;99.90
37300;DHT22;23184;51.902;12.836;2022-11-15T07:03:09;6.00;99.90
37300;DHT22;23184;51.902;12.836;2022-11-15T07:05:35;6.00;99.90
37300;DHT22;23184;51.902;12.836;2022-11-15T07:08:01;6.10;99.90
37300;DHT22;23184;51.902;12.836;2022-11-15T07:10:27;6.10;99.90
37300;DHT22;23184;51.902;12.836;2022-11-15T07:12:54;6.20;99.90
37300;DHT22;23184;51.902;12.836;2022-11-15T07:15:23;6.20;99.90
37300;DHT22;23184;51.902;12.836;2022-11-15T07:17:49;6.20;99.90
37300;DHT22;23184;51.902;12.836;2022-11-15T07:20:15;6.30;99.90
37300;DHT22;23184;51.902;12.836;2022-11-15T07:22:42;6.30;99.90
37300;DHT22;23184;51.902;12.836;2022-11-15T07:25:08;6.40;99.90
37300;DHT22;23184;51.902;12.836;2022-11-15T07:27:34;6.50;99.90
37300;DHT22;23184;51.902;12.836;2022-11-15T07:30:00;6.50;99.90
37300;DHT22;23184;51.902;12.836;2022-11-15T07:32:26;6.60;99.90
37300;DHT22;23184;51.902;12.836;2022-11-15T07:34:52;6.70;99.90
37300;DHT22;23184;51.902;12.836;2022-11-15T07:37:17;6.70;99.90
37300;DHT22;23184;51.902;12.836;2022-11-15T07:39:43;6.80;99.90
37300;DHT22;23184;51.902;12.836;2022-11-15T07:42:09;6.80;99.90
37300;DHT22;23184;51.902;12.836;2022-11-15T07:44:53;6.90;99.90
37300;DHT22;23184;51.902;12.836;2022-11-15T07:47:19;7.00;99.90
37300;DHT22;23184;51.902;12.836;2022-11-15T07:49:44;7.10;99.90
37300;DHT22;23184;51.902;12.836;2022-11-15T07:52:11;7.10;99.90
37300;DHT22;23184;51.902;12.836;2022-11-15T07:54:37;7.20;99.90
37300;DHT22;23184;51.902;12.836;2022-11-15T07:57:03;7.20;99.90
37300;DHT22;23184;51.902;12.836;2022-11-15T07:59:28;7.30;99.90
37300;DHT22;23184;51.902;12.836;2022-11-15T08:01:54;7.30;99.90
37300;DHT22;23184;51.902;12.836;2022-11-15T08:04:19;7.30;99.90
37300;DHT22;23184;51.902;12.836;2022-11-15T08:06:45;7.40;99.90
37300;DHT22;23184;51.902;12.836;2022-11-15T08:09:11;7.50;99.90
37300;DHT22;23184;51.902;12.836;2022-11-15T08:11:36;7.50;99.90
37300;DHT22;23184;51.902;12.836;2022-11-15T08:14:02;7.60;99.90
37300;DHT22;23184;51.902;12.836;2022-11-15T08:16:28;7.60;99.90
37300;DHT22;23184;51.902;12.836;2022-11-15T08:18:53;7.70;99.90
37300;DHT22;23184;51.902;12.836;2022-11-15T08:21:20;7.80;99.90
37300;DHT22;23184;51.902;12.836;2022-11-15T08:23:46;7.90;99.90
37300;DHT22;23184;51.902;12.836;2022-11-15T08:26:12;8.00;99.90
37300;DHT22;23184;51.902;12.836;2022-11-15T08:28:37;8.10;99.90
37300;DHT22;23184;51.902;12.836;2022-11-15T08:31:03;8.40;99.90
37300;DHT22;23184;51.902;12.836;2022-11-15T08:33:30;9.20;99.90
37300;DHT22;23184;51.902;12.836;2022-11-15T08:35:57;10.00;99.90
37300;DHT22;23184;51.902;12.836;2022-11-15T08:38:23;10.90;99.90
37300;DHT22;23184;51.902;12.836;2022-11-15T08:40:50;11.60;99.90
37300;DHT22;23184;51.902;12.836;2022-11-15T08:43:16;12.30;99.90
37300;DHT22;23184;51.902;12.836;2022-11-15T08:45:41;12.50;99.90
37300;DHT22;23184;51.902;12.836;2022-11-15T08:48:07;12.80;99.90
37300;DHT22;23184;51.902;12.836;2022-11-15T08:50:33;13.00;99.90
37300;DHT22;23184;51.902;12.836;2022-11-15T08:53:05;13.40;99.90
37300;DHT22;23184;51.902;12.836;2022-11-15T08:55:30;13.60;99.90
37300;DHT22;23184;51.902;12.836;2022-11-15T08:57:57;13.60;99.90
37300;DHT22;23184;51.902;12.836;2022-11-15T09:00:23;14.00;99.90
37300;DHT22;23184;51.902;12.836;2022-11-15T09:02:48;14.20;99.90
37300;DHT22;23184;51.902;12.836;2022-11-15T09:05:14;14.80;99.90
37300;DHT22;23184;51.902;12.836;2022-11-15T09:07:43;14.50;99.90
37300;DHT22;23184;51.902;12.836;2022-11-15T09:10:09;14.50;99.90
37300;DHT22;23184;51.902;12.836;2022-11-15T09:12:35;14.40;99.90
37300;DHT22;23184;51.902;12.836;2022-11-15T09:15:00;14.30;99.90
37300;DHT22;23184;51.902;12.836;2022-11-15T09:17:26;14.00;99.90
37300;DHT22;23184;51.902;12.836;2022-11-15T09:19:51;13.30;99.90
37300;DHT22;23184;51.902;12.836;2022-11-15T09:22:17;12.90;99.90
37300;DHT22;23184;51.902;12.836;2022-11-15T09:24:43;12.40;99.90
37300;DHT22;23184;51.902;12.836;2022-11-15T09:27:08;11.80;99.90
37300;DHT22;23184;51.902;12.836;2022-11-15T09:29:34;11.40;99.90
37300;DHT22;23184;51.902;12.836;2022-11-15T09:31:59;11.20;99.90
37300;DHT22;23184;51.902;12.836;2022-11-15T09:34:25;11.10;99.90
37300;DHT22;23184;51.902;12.836;2022-11-15T09:36:51;10.90;99.90
37300;DHT22;23184;51.902;12.836;2022-11-15T09:39:16;10.80;99.90
37300;DHT22;23184;51.902;12.836;2022-11-15T09:44:38;10.80;99.90
37300;DHT22;23184;51.902;12.836;2022-11-15T09:49:58;10.80;99.90
37300;DHT22;23184;51.902;12.836;2022-11-15T09:52:25;10.90;99.90
37300;DHT22;23184;51.902;12.836;2022-11-15T09:54:52;10.90;99.90
37300;DHT22;23184;51.902;12.836;2022-11-15T09:57:37;10.90;99.90
37300;DHT22;23184;51.902;12.836;2022-11-15T10:03:11;11.00;99.90
37300;DHT22;23184;51.902;12.836;2022-11-15T10:05:47;11.00;99.90
37300;DHT22;23184;51.902;12.836;2022-11-15T10:11:22;11.10;99.90
37300;DHT22;23184;51.902;12.836;2022-11-15T10:13:50;11.10;99.90
37300;DHT22;23184;51.902;12.836;2022-11-15T10:16:32;11.00;99.90
37300;DHT22;23184;51.902;12.836;2022-11-15T10:24:50;11.30;99.90
37300;DHT22;23184;51.902;12.836;2022-11-15T10:27:18;11.30;99.90
37300;DHT22;23184;51.902;12.836;2022-11-15T10:29:46;11.30;99.90
37300;DHT22;23184;51.902;12.836;2022-11-15T10:32:13;11.40;99.90
37300;DHT22;23184;51.902;12.836;2022-11-15T10:34:39;11.60;99.90
37300;DHT22;23184;51.902;12.836;2022-11-15T10:37:05;11.60;99.90
37300;DHT22;23184;51.902;12.836;2022-11-15T10:39:30;11.70;99.90
37300;DHT22;23184;51.902;12.836;2022-11-15T10:41:56;11.70;99.90
37300;DHT22;23184;51.902;12.836;2022-11-15T10:44:29;11.70;99.90
37300;DHT22;23184;51.902;12.836;2022-11-15T10:49:29;11.80;99.90
37300;DHT22;23184;51.902;12.836;2022-11-15T10:52:04;11.90;99.90
37300;DHT22;23184;51.902;12.836;2022-11-15T10:57:38;11.90;99.90
37300;DHT22;23184;51.902;12.836;2022-11-15T11:00:29;12.00;99.90
37300;DHT22;23184;51.902;12.836;2022-11-15T11:05:39;12.20;99.90
37300;DHT22;23184;51.902;12.836;2022-11-15T11:10:58;12.20;99.90
37300;DHT22;23184;51.902;12.836;2022-11-15T11:13:25;12.30;99.90
37300;DHT22;23184;51.902;12.836;2022-11-15T11:30:23;12.60;99.90
37300;DHT22;23184;51.902;12.836;2022-11-15T11:35:33;12.70;99.90
37300;DHT22;23184;51.902;12.836;2022-11-15T11:38:07;12.80;99.90
37300;DHT22;23184;51.902;12.836;2022-11-15T11:40:44;12.80;99.90
37300;DHT22;23184;51.902;12.836;2022-11-15T11:43:21;12.80;99.90
37300;DHT22;23184;51.902;12.836;2022-11-15T11:48:42;12.90;99.90
37300;DHT22;23184;51.902;12.836;2022-11-15T11:51:27;13.00;99.90
37300;DHT22;23184;51.902;12.836;2022-11-15T11:56:40;13.10;99.90
37300;DHT22;23184;51.902;12.836;2022-11-15T11:59:26;13.20;99.90
37300;DHT22;23184;51.902;12.836;2022-11-15T12:01:54;13.20;99.90
37300;DHT22;23184;51.902;12.836;2022-11-15T12:04:29;13.30;99.90
37300;DHT22;23184;51.902;12.836;2022-11-15T12:07:12;13.30;99.90
37300;DHT22;23184;51.902;12.836;2022-11-15T12:12:30;13.50;99.90
37300;DHT22;23184;51.902;12.836;2022-11-15T12:17:35;13.60;99.90
37300;DHT22;23184;51.902;12.836;2022-11-15T12:20:06;13.50;99.90
37300;DHT22;23184;51.902;12.836;2022-11-15T12:25:56;13.50;99.90
37300;DHT22;23184;51.902;12.836;2022-11-15T12:28:14;13.60;99.90
37300;DHT22;23184;51.902;12.836;2022-11-15T12:31:01;13.60;99.90
37300;DHT22;23184;51.902;12.836;2022-11-15T12:33:37;13.60;99.90
37300;DHT22;23184;51.902;12.836;2022-11-15T12:36:37;13.60;99.90
37300;DHT22;23184;51.902;12.836;2022-11-15T12:39:08;13.60;99.90
37300;DHT22;23184;51.902;12.836;2022-11-15T12:42:34;13.60;99.90
37300;DHT22;23184;51.902;12.836;2022-11-15T13:02:24;13.60;99.90
37300;DHT22;23184;51.902;12.836;2022-11-15T13:04:53;13.60;99.90
37300;DHT22;23184;51.902;12.836;2022-11-15T13:10:00;13.70;99.90
37300;DHT22;23184;51.902;12.836;2022-11-15T13:15:00;13.70;99.90
37300;DHT22;23184;51.902;12.836;2022-11-15T13:17:37;13.80;99.90
37300;DHT22;23184;51.902;12.836;2022-11-15T13:30:51;13.70;99.90
37300;DHT22;23184;51.902;12.836;2022-11-15T13:33:24;13.70;99.90
37300;DHT22;23184;51.902;12.836;2022-11-15T13:35:54;13.60;99.90
37300;DHT22;23184;51.902;12.836;2022-11-15T13:38:27;13.60;99.90
37300;DHT22;23184;51.902;12.836;2022-11-15T13:40:53;13.60;99.90
37300;DHT22;23184;51.902;12.836;2022-11-15T13:46:07;13.70;99.90
37300;DHT22;23184;51.902;12.836;2022-11-15T13:48:35;13.70;99.90
37300;DHT22;23184;51.902;12.836;2022-11-15T13:51:03;13.80;99.90
37300;DHT22;23184;51.902;12.836;2022-11-15T13:53:32;13.80;99.90
37300;DHT22;23184;51.902;12.836;2022-11-15T13:55:58;13.90;99.90
37300;DHT22;23184;51.902;12.836;2022-11-15T13:58:24;13.80;99.90
37300;DHT22;23184;51.902;12.836;2022-11-15T14:01:00;13.90;99.90
37300;DHT22;23184;51.902;12.836;2022-11-15T14:03:29;13.90;99.90
37300;DHT22;23184;51.902;12.836;2022-11-15T14:06:09;13.90;99.90
37300;DHT22;23184;51.902;12.836;2022-11-15T14:11:27;14.20;99.90
37300;DHT22;23184;51.902;12.836;2022-11-15T14:16:41;14.60;99.90
37300;DHT22;23184;51.902;12.836;2022-11-15T14:19:55;14.80;99.90
37300;DHT22;23184;51.902;12.836;2022-11-15T14:22:16;15.00;99.90
37300;DHT22;23184;51.902;12.836;2022-11-15T14:24:47;15.20;99.90
37300;DHT22;23184;51.902;12.836;2022-11-15T14:27:29;15.30;99.90
37300;DHT22;23184;51.902;12.836;2022-11-15T14:29:55;15.60;99.90
37300;DHT22;23184;51.902;12.836;2022-11-15T14:32:25;16.30;99.90
37300;DHT22;23184;51.902;12.836;2022-11-15T14:34:59;16.70;99.90
37300;DHT22;23184;51.902;12.836;2022-11-15T14:37:28;16.90;99.90
37300;DHT22;23184;51.902;12.836;2022-11-15T14:39:54;16.90;99.90
37300;DHT22;23184;51.902;12.836;2022-11-15T14:42:22;16.90;99.90
37300;DHT22;23184;51.902;12.836;2022-11-15T14:44:48;16.70;99.90
37300;DHT22;23184;51.902;12.836;2022-11-15T14:47:13;16.80;99.90
37300;DHT22;23184;51.902;12.836;2022-11-15T14:49:39;17.00;99.90
37300;DHT22;23184;51.902;12.836;2022-11-15T14:52:27;16.50;99.90
37300;DHT22;23184;51.902;12.836;2022-11-15T14:54:54;15.90;99.90
37300;DHT22;23184;51.902;12.836;2022-11-15T14:57:20;15.40;99.90
37300;DHT22;23184;51.902;12.836;2022-11-15T14:59:45;14.90;99.90
37300;DHT22;23184;51.902;12.836;2022-11-15T15:02:24;14.20;99.90
37300;DHT22;23184;51.902;12.836;2022-11-15T15:04:50;13.80;99.90
37300;DHT22;23184;51.902;12.836;2022-11-15T15:07:16;13.30;99.90
37300;DHT22;23184;51.902;12.836;2022-11-15T15:09:42;12.80;99.90
37300;DHT22;23184;51.902;12.836;2022-11-15T15:12:21;12.50;99.90
37300;DHT22;23184;51.902;12.836;2022-11-15T15:14:49;12.10;99.90
37300;DHT22;23184;51.902;12.836;2022-11-15T15:17:15;11.80;99.90
37300;DHT22;23184;51.902;12.836;2022-11-15T15:19:41;11.50;99.90
37300;DHT22;23184;51.902;12.836;2022-11-15T15:22:15;11.30;99.90
37300;DHT22;23184;51.902;12.836;2022-11-15T15:24:42;11.10;99.90
37300;DHT22;23184;51.902;12.836;2022-11-15T15:27:08;10.90;99.90
37300;DHT22;23184;51.902;12.836;2022-11-15T15:29:34;10.80;99.90
37300;DHT22;23184;51.902;12.836;2022-11-15T15:32:00;10.70;99.90
37300;DHT22;23184;51.902;12.836;2022-11-15T15:34:25;10.60;99.90
37300;DHT22;23184;51.902;12.836;2022-11-15T15:37:21;10.50;99.90
37300;DHT22;23184;51.902;12.836;2022-11-15T15:39:54;10.40;99.90
37300;DHT22;23184;51.902;12.836;2022-11-15T15:42:21;10.40;99.90
37300;DHT22;23184;51.902;12.836;2022-11-15T15:44:47;10.40;99.90
37300;DHT22;23184;51.902;12.836;2022-11-15T15:47:19;10.30;99.90
37300;DHT22;23184;51.902;12.836;2022-11-15T15:49:45;10.20;99.90
37300;DHT22;23184;51.902;12.836;2022-11-15T15:52:11;10.30;99.90
37300;DHT22;23184;51.902;12.836;2022-11-15T15:54:37;10.20;99.90
37300;DHT22;23184;51.902;12.836;2022-11-15T15:57:03;10.30;99.90
37300;DHT22;23184;51.902;12.836;2022-11-15T15:59:30;10.30;99.90
37300;DHT22;23184;51.902;12.836;2022-11-15T16:01:55;10.30;99.90
37300;DHT22;23184;51.902;12.836;2022-11-15T16:04:21;10.30;99.90
37300;DHT22;23184;51.902;12.836;2022-11-15T16:06:47;10.30;99.90
37300;DHT22;23184;51.902;12.836;2022-11-15T16:09:17;10.20;99.90
37300;DHT22;23184;51.902;12.836;2022-11-15T16:11:44;10.20;99.90
37300;DHT22;23184;51.902;12.836;2022-11-15T16:14:10;10.20;99.90
37300;DHT22;23184;51.902;12.836;2022-11-15T16:16:36;10.20;99.90
37300;DHT22;23184;51.902;12.836;2022-11-15T16:19:02;10.20;99.90
37300;DHT22;23184;51.902;12.836;2022-11-15T16:21:28;10.20;99.90
37300;DHT22;23184;51.902;12.836;2022-11-15T16:23:53;10.20;99.90
37300;DHT22;23184;51.902;12.836;2022-11-15T16:26:25;10.20;99.90
37300;DHT22;23184;51.902;12.836;2022-11-15T16:28:51;10.20;99.90
37300;DHT22;23184;51.902;12.836;2022-11-15T16:31:17;10.10;99.90
37300;DHT22;23184;51.902;12.836;2022-11-15T16:33:45;10.10;99.90
37300;DHT22;23184;51.902;12.836;2022-11-15T16:36:25;10.20;99.90
37300;DHT22;23184;51.902;12.836;2022-11-15T16:38:51;10.10;99.90
37300;DHT22;23184;51.902;12.836;2022-11-15T16:41:17;10.10;99.90
37300;DHT22;23184;51.902;12.836;2022-11-15T16:43:50;10.10;99.90
37300;DHT22;23184;51.902;12.836;2022-11-15T16:46:24;10.10;99.90
37300;DHT22;23184;51.902;12.836;2022-11-15T16:48:50;10.10;99.90
37300;DHT22;23184;51.902;12.836;2022-11-15T16:51:16;10.10;99.90
37300;DHT22;23184;51.902;12.836;2022-11-15T16:53:43;10.10;99.90
37300;DHT22;23184;51.902;12.836;2022-11-15T16:58:43;10.20;99.90
37300;DHT22;23184;51.902;12.836;2022-11-15T17:01:18;10.10;99.90
37300;DHT22;23184;51.902;12.836;2022-11-15T17:03:45;10.10;99.90
37300;DHT22;23184;51.902;12.836;2022-11-15T17:06:12;10.10;99.90
37300;DHT22;23184;51.902;12.836;2022-11-15T17:08:38;10.10;99.90
37300;DHT22;23184;51.902;12.836;2022-11-15T17:11:07;10.00;99.90
37300;DHT22;23184;51.902;12.836;2022-11-15T17:13:33;10.00;99.90
37300;DHT22;23184;51.902;12.836;2022-11-15T17:16:06;10.00;99.90
37300;DHT22;23184;51.902;12.836;2022-11-15T17:18:33;10.00;99.90
37300;DHT22;23184;51.902;12.836;2022-11-15T17:21:04;9.90;99.90
37300;DHT22;23184;51.902;12.836;2022-11-15T17:23:29;9.90;99.90
37300;DHT22;23184;51.902;12.836;2022-11-15T17:26:00;9.80;99.90
37300;DHT22;23184;51.902;12.836;2022-11-15T17:28:25;9.80;99.90
37300;DHT22;23184;51.902;12.836;2022-11-15T17:30:51;9.70;99.90
37300;DHT22;23184;51.902;12.836;2022-11-15T17:33:16;9.70;99.90
37300;DHT22;23184;51.902;12.836;2022-11-15T17:35:42;9.60;99.90
37300;DHT22;23184;51.902;12.836;2022-11-15T17:38:07;9.60;99.90
37300;DHT22;23184;51.902;12.836;2022-11-15T17:40:33;9.50;99.90